Latest Coastal Weather Observations for Proserpine

IDQ60701

Issued at 1:32 pm EST Tuesday 22 August 2017 (issued every 10 minutes, with the page automatically refreshed every 10 minutes)

About coastal observations | Map of coastal stations | Coastal observations for QLD | Marine services | Other Formats
Station Details ID: 033247 Name: PROSERPINE AIRPORT Lat: -20.49 Lon: 148.56 Height: 19.7 m
Data from the previous 72 hours. | See also: Recent months at Proserpine
Date/Time
EST
Temp
°C
Wind Pressure Rain since
9am
mm
Weather Cloud Vis
km
Sea
Height
m
Swell
Dir  Spd
kts
Gust
kts
hPa Trend Height
m
Period
s
Dir
22/01:30pm 27.2 E 9 14 1016.5 - 0.0 - Partly cloudy 10 - - - -
22/01:00pm 27.4 SE 10 16 1016.8 - 0.0 - Partly cloudy 10 - - - -
22/12:30pm 27.3 NW 5 7 1017.3 - 0.0 - - 10 - - - -
22/12:00pm 27.2 NE 5 9 1017.8 - 0.0 - - 10 - - - -
22/11:30am 26.1 ENE 5 9 1018.4 - 0.0 - - 10 - - - -
22/11:00am 26.0 NW 2 7 1018.8 - 0.0 - - 10 - - - -
22/10:30am 25.0 N 7 10 1019.2 - 0.0 - - 10 - - - -
22/10:00am 24.7 NNE 4 8 1019.4 - 0.0 - - 10 - - - -
22/09:30am 23.3 NNW 3 6 1019.5 - 0.0 - - 10 - - - -
22/09:00am 22.2 ESE 2 4 1019.7 - 0.0 - - 10 - - - -
22/08:30am 20.6 CALM 0 3 1019.7 - 0.0 - - 10 - - - -
22/08:00am 17.8 SSE 3 4 1019.7 - 0.0 - - 10 - - - -
22/07:30am 15.4 SW 3 4 1019.4 - 0.0 - - 10 - - - -
22/07:00am 11.9 CALM 0 0 1019.2 - 0.0 - - 10 - - - -
22/06:42am 11.0 CALM 0 0 1019.0 - 0.0 - - 10 - - - -
22/06:30am 11.2 CALM 0 3 1018.8 - 0.0 - - 5 - - - -
22/06:24am 11.5 CALM 0 0 1018.7 - 0.0 - - 5 - - - -
22/06:15am 12.0 CALM 0 0 1018.6 - 0.0 - - 10 - - - -
22/06:00am 12.4 CALM 0 2 1018.3 - 0.0 - - 4 - - - -
22/05:55am 12.3 SSW 1 3 1018.3 - 0.0 - - 6 - - - -
22/05:30am 12.5 SSW 4 5 1018.2 - 0.0 - - 10 - - - -
22/05:00am 11.8 SSW 3 5 1017.8 - 0.0 - - 10 - - - -
22/04:41am 12.1 CALM 0 0 1017.7 - 0.0 - - 6 - - - -
22/04:33am 12.1 CALM 0 0 1017.6 - 0.0 - - 10 - - - -
22/04:30am 12.2 CALM 0 0 1017.6 - 0.0 - - 10 - - - -
22/04:11am 11.5 CALM 0 0 1017.5 - 0.0 - - 6 - - - -
22/04:00am 11.3 CALM 0 2 1017.5 - 0.0 - - 8 - - - -
22/03:51am 11.4 NNW 3 3 1017.5 - 0.0 - - 10 - - - -
22/03:30am 12.6 NNW 3 4 1017.6 - 0.0 - - 1 - - - -
22/03:25am 12.4 NNW 3 4 1017.6 - 0.0 - - 4 - - - -
22/03:00am 11.8 NW 2 4 1017.8 - 0.0 - - 10 - - - -
22/02:30am 12.9 CALM 0 0 1018.1 - 0.0 - - 10 - - - -
22/02:00am 12.8 W 2 4 1018.4 - 0.0 - - 10 - - - -
22/01:30am 13.5 CALM 0 0 1018.7 - 0.0 - - 10 - - - -
22/01:00am 13.7 SW 3 3 1019.0 - 0.0 - - 10 - - - -
22/12:30am 15.1 SSW 3 5 1019.3 - 0.0 - - 10 - - - -
22/12:00am 14.6 SW 4 5 1019.5 - 0.0 - Mostly clear 10 - - - -
 
Date/Time
EST
Temp
°C
Wind Pressure Rain since
9am
mm
Weather Cloud Vis
km
Sea
Height
m
Swell
Dir  Spd
kts
Gust
kts
hPa Trend Height
m
Period
s
Dir
21/11:43pm 15.2 SW 4 5 1019.5 - 0.0 - Partly cloudy 10 - - - -
21/11:30pm 15.1 SW 2 3 1019.4 - 0.0 - - 6 - - - -
21/11:25pm 15.2 SW 2 4 1019.5 - 0.0 - - 6 - - - -
21/11:00pm 15.9 SW 4 5 1019.5 - 0.0 - Partly cloudy 10 - - - -
21/10:30pm 16.6 S 4 5 1019.5 - 0.0 - Partly cloudy 9 - - - -
21/10:00pm 17.0 SSW 4 5 1019.6 - 0.0 - Partly cloudy 10 - - - -
21/09:30pm 16.5 SW 1 4 1019.3 - 0.0 - Partly cloudy 10 - - - -
21/09:00pm 16.6 SSW 4 5 1019.2 - 0.0 - Partly cloudy 10 - - - -
21/08:30pm 17.2 SSW 3 3 1019.1 - 0.0 - - 10 - - - -
21/08:25pm 17.0 SSW 3 4 1019.1 - 0.0 - - 10 - - - -
21/08:00pm 18.2 SE 3 4 1019.0 - 0.0 - - 4 - - - -
21/07:30pm 18.2 SE 4 6 1018.8 - 0.0 - - 4 - - - -
21/07:25pm 18.2 SE 5 6 1018.8 - 0.0 - - 6 - - - -
21/07:00pm 19.3 ESE 4 6 1018.4 - 0.0 - Partly cloudy 10 - - - -
21/06:30pm 20.0 ESE 5 7 1018.1 - 0.0 - Partly cloudy 10 - - - -
21/06:00pm 20.7 ESE 8 11 1017.9 - 0.0 - Mostly cloudy 10 - - - -
21/05:30pm 21.7 ESE 10 14 1017.7 - 0.0 - Partly cloudy 10 - - - -
21/05:00pm 22.4 SE 11 15 1017.4 - 0.0 - Partly cloudy 10 - - - -
21/04:30pm 22.5 ESE 11 15 1017.2 - 0.0 - Partly cloudy 10 - - - -
21/04:00pm 23.4 E 11 15 1016.9 - 0.0 - Partly cloudy 10 - - - -
21/03:30pm 23.3 E 11 16 1016.8 - 0.0 - Partly cloudy 10 - - - -
21/03:00pm 23.9 ESE 10 17 1017.0 - 0.0 - Cloudy 10 - - - -
21/02:30pm 23.4 E 10 16 1017.0 - 0.0 - Partly cloudy 10 - - - -
21/02:00pm 23.3 ESE 11 15 1017.4 - 0.0 - Partly cloudy 10 - - - -
21/01:30pm 24.5 ESE 11 16 1017.7 - 0.0 - Partly cloudy 10 - - - -
21/01:00pm 23.8 SE 9 15 1017.9 - 0.0 - Partly cloudy 10 - - - -
21/12:30pm 23.8 SE 7 12 1018.3 - 0.0 - Partly cloudy 10 - - - -
21/12:00pm 24.5 ESE 8 14 1018.8 - 0.0 - Partly cloudy 10 - - - -
21/11:30am 24.0 SE 10 15 1019.2 - 0.0 - Partly cloudy 10 - - - -
21/11:00am 24.2 SSE 8 15 1019.6 - 0.0 - Partly cloudy 10 - - - -
21/10:30am 22.9 SE 6 13 1020.0 - 0.0 - - 10 - - - -
21/10:00am 22.6 SE 5 9 1020.2 - 0.0 - Partly cloudy 10 - - - -
21/09:30am 20.9 S 4 8 1020.4 - 0.0 - - 10 - - - -
21/09:00am 19.5 NNE 1 4 1020.3 - 0.0 - - 10 - - - -
21/08:30am 15.7 NNW 3 4 1020.1 - 0.0 - Partly cloudy 10 - - - -
21/08:00am 12.6 NNW 3 4 1019.9 - 0.0 - Partly cloudy 10 - - - -
21/07:30am 11.0 NNE 1 4 1019.7 - 0.0 - Partly cloudy 10 - - - -
21/07:00am 9.6 CALM 0 0 1019.3 - 0.0 - Partly cloudy 10 - - - -
21/06:30am 9.5 W 2 3 1018.9 - 0.0 - Partly cloudy 10 - - - -
21/06:00am 9.2 NNW 3 4 1018.7 - 0.0 - Mostly cloudy 10 - - - -
21/05:30am 8.4 CALM 0 0 1018.4 - 0.0 - Partly cloudy 10 - - - -
21/05:00am 8.3 CALM 0 2 1018.2 - 0.0 - Partly cloudy 10 - - - -
21/04:30am 8.9 CALM 0 0 1018.2 - 0.0 - Cloudy 10 - - - -
21/04:00am 7.5 SW 4 5 1018.1 - 0.0 - Partly cloudy 10 - - - -
21/03:30am 6.0 SW 4 5 1018.1 - 0.0 - - 10 - - - -
21/03:00am 6.1 CALM 0 0 1018.2 - 0.0 - - 10 - - - -
21/02:30am 6.9 WSW 2 4 1018.4 - 0.0 - - 10 - - - -
21/02:00am 7.6 SW 4 6 1018.5 - 0.0 - - 10 - - - -
21/01:30am 7.9 SW 7 8 1018.6 - 0.0 - - 10 - - - -
21/01:00am 9.0 SSW 8 9 1018.9 - 0.0 - - 10 - - - -
21/12:30am 9.3 SW 8 9 1019.3 - 0.0 - - 10 - - - -
21/12:00am 9.0 SW 8 9 1019.3 - 0.0 - - 10 - - - -
 
Date/Time
EST
Temp
°C
Wind Pressure Rain since
9am
mm
Weather Cloud Vis
km
Sea
Height
m
Swell
Dir  Spd
kts
Gust
kts
hPa Trend Height
m
Period
s
Dir
20/11:30pm 9.3 SSW 8 9 1019.4 - 0.0 - - 10 - - - -
20/11:00pm 9.6 SW 8 9 1019.4 - 0.0 - - 10 - - - -
20/10:30pm 9.7 SW 8 9 1019.4 - 0.0 - - 10 - - - -
20/10:00pm 9.9 SW 7 8 1019.5 - 0.0 - - 10 - - - -
20/09:30pm 10.2 SW 7 8 1019.6 - 0.0 - - 10 - - - -
20/09:00pm 10.8 SW 7 8 1019.7 - 0.0 - - 10 - - - -
20/08:30pm 11.9 SSW 7 8 1019.6 - 0.0 - - 10 - - - -
20/08:00pm 13.0 SSW 5 6 1019.5 - 0.0 - - 10 - - - -
20/07:30pm 14.2 SE 5 6 1019.4 - 0.0 - - 5 - - - -
20/07:20pm 13.9 SE 5 6 1019.3 - 0.0 - - 6 - - - -
20/07:00pm 14.7 ESE 5 7 1019.1 - 0.0 - - 10 - - - -
20/06:30pm 15.2 SE 5 6 1018.8 - 0.0 - - 10 - - - -
20/06:00pm 16.7 ESE 7 9 1018.5 - 0.0 - - 10 - - - -
20/05:30pm 18.3 ESE 9 14 1018.1 - 0.0 - - 10 - - - -
20/05:00pm 19.2 ESE 11 16 1017.6 - 0.0 - - 10 - - - -
20/04:30pm 20.1 ESE 11 15 1017.4 - 0.0 - - 10 - - - -
20/04:00pm 20.7 ESE 9 14 1017.1 - 0.0 - - 10 - - - -
20/03:30pm 20.8 ESE 12 18 1017.3 - 0.0 - - 10 - - - -
20/03:00pm 20.8 ESE 11 19 1017.1 - 0.0 - - 10 - - - -
20/02:30pm 21.2 ESE 13 20 1017.0 - 0.0 - - 10 - - - -
20/02:00pm 21.0 E 14 19 1017.4 - 0.0 - - 10 - - - -
20/01:30pm 20.8 E 13 17 1017.8 - 0.0 - - 10 - - - -
20/01:00pm 21.8 ESE 13 20 1018.5 - 0.0 - - 10 - - - -
20/12:30pm 21.2 ESE 13 19 1018.8 - 0.0 - - 10 - - - -
20/12:00pm 20.4 E 12 17 1019.1 - 0.0 - - 10 - - - -
20/11:30am 20.5 ESE 14 19 1019.8 - 0.0 - - 10 - - - -
20/11:00am 20.7 ESE 13 19 1020.3 - 0.0 - - 10 - - - -
20/10:30am 20.0 ESE 13 20 1020.6 - 0.0 - - 10 - - - -
20/10:00am 19.1 ESE 15 21 1020.7 - 0.0 - - 10 - - - -
20/09:30am 19.2 ESE 15 22 1020.7 - 0.0 - - 10 - - - -
20/09:00am 18.5 ESE 13 20 1020.7 - 0.0 - - 10 - - - -
20/08:30am 18.1 ESE 13 19 1020.4 - 0.0 - - 10 - - - -
20/08:00am 16.5 ESE 11 15 1020.1 - 0.0 - - 10 - - - -
20/07:30am 13.7 ESE 9 13 1019.9 - 0.0 - - 10 - - - -
20/07:20am 11.5 ESE 5 7 1019.9 - 0.0 - - 10 - - - -
20/07:00am 6.3 CALM 0 0 1019.7 - 0.0 - - 10 - - - -
20/06:30am 5.5 WNW 5 6 1019.2 - 0.0 - - 10 - - - -
20/06:00am 5.6 NNW 2 4 1018.8 - 0.0 - - 10 - - - -
20/05:30am 6.2 WSW 2 4 1018.6 - 0.0 - - 10 - - - -
20/05:00am 7.3 SSW 7 8 1018.4 - 0.0 - - 10 - - - -
20/04:30am 8.2 SSW 2 5 1018.1 - 0.0 - - 10 - - - -
20/04:00am 8.2 SSW 9 10 1017.9 - 0.0 - - 10 - - - -
20/03:30am 6.1 SW 5 6 1017.6 - 0.0 - - 10 - - - -
20/03:00am 7.2 SW 5 5 1017.7 - 0.0 - - 10 - - - -
20/02:30am 7.2 CALM 0 0 1017.9 - 0.0 - - 10 - - - -
20/02:00am 8.8 CALM 0 0 1018.0 - 0.0 - - 10 - - - -
20/01:30am 9.6 CALM 0 0 1018.0 - 0.0 - - 10 - - - -
20/01:00am 9.9 S 1 3 1018.1 - 0.0 - - 10 - - - -
20/12:30am 10.2 CALM 0 0 1018.3 - 0.0 - - 10 - - - -
20/12:00am 9.5 WNW 2 3 1018.6 - 0.0 - - 10 - - - -
 
Date/Time
EST
Temp
°C
Wind Pressure Rain since
9am
mm
Weather Cloud Vis
km
Sea
Height
m
Swell
Dir  Spd
kts
Gust
kts
hPa Trend Height
m
Period
s
Dir
19/11:30pm 11.9 SW 3 4 1018.8 - 0.0 - - 10 - - - -
19/11:00pm 11.7 SW 5 8 1018.9 - 0.0 - - 10 - - - -
19/10:30pm 13.0 SW 3 4 1019.0 - 0.0 - - 10 - - - -
19/10:00pm 13.8 SSW 5 5 1019.1 - 0.0 - - 10 - - - -
19/09:30pm 13.5 SSW 6 7 1018.9 - 0.0 - - 10 - - - -
19/09:00pm 14.2 SW 7 8 1018.9 - 0.0 - - 10 - - - -
19/08:30pm 14.4 SW 7 8 1018.6 - 0.0 - - 10 - - - -
19/08:00pm 15.4 SW 5 6 1018.3 - 0.0 - - 10 - - - -
19/07:30pm 16.2 S 5 6 1017.9 - 0.0 - - 10 - - - -
19/07:00pm 17.3 S 5 6 1017.5 - 0.0 - - 10 - - - -
19/06:30pm 18.7 S 6 8 1017.0 - 0.0 - - 10 - - - -
19/06:00pm 19.5 SSE 6 8 1016.4 - 0.0 - - 10 - - - -
19/05:30pm 21.5 SE 9 11 1015.9 - 0.0 - - 10 - - - -
19/05:00pm 23.1 SE 11 14 1015.5 - 0.0 - - 10 - - - -
19/04:30pm 24.0 SE 11 14 1015.3 - 0.0 - - 10 - - - -
19/04:00pm 24.5 SE 9 13 1015.0 - 0.0 - - 10 - - - -
19/03:30pm 24.6 SE 11 14 1015.1 - 0.0 - - 10 - - - -
19/03:00pm 24.5 ESE 11 15 1015.2 - 0.0 - - 10 - - - -
19/02:30pm 25.5 ESE 13 17 1015.4 - 0.0 - - 10 - - - -
19/02:00pm 25.3 ESE 12 18 1015.7 - 0.0 - - 10 - - - -

Other Formats:

Comma delimited format used in spreadsheet applications
http://www.bom.gov.au/fwo/IDQ60701/IDQ60701.94365.axf

JavaScript Object Notation format (JSON) in row-major order
http://www.bom.gov.au/fwo/IDQ60701/IDQ60701.94365.json